Time;durP1;ratioP1;P1;durP2;ratioP2;P2;SDS_P1;SDS_P2;PMS_P1;PMS_P2;Temp;Humidity;BMP_temperature;BMP_pressure;BME280_temperature;BME280_humidity;BME280_pressure;Samples;Min_cycle;Max_cycle;Signal;HPM_P1;HPM_P2
2022/09/27 00:00:59;;;;;;;0.90;0.90;;;;;;;;;;4974541;28;20673;-78
2022/09/27 00:03:25;;;;;;;0.97;0.87;;;;;;;;;;4973716;28;20178;-78
2022/09/27 00:06:01;;;;;;;1.50;0.90;;;;;;;;;;4957714;28;20186;-78
2022/09/27 00:08:27;;;;;;;1.03;0.70;;;;;;;;;;4973354;28;20237;-78
2022/09/27 00:11:04;;;;;;;0.80;0.80;;;;;;;;;;4956538;28;20665;-78
2022/09/27 00:13:30;;;;;;;1.53;0.83;;;;;;;;;;4974703;28;20175;-78
2022/09/27 00:16:00;;;;;;;0.80;0.80;;;;;;;;;;4957492;28;20229;-78
2022/09/27 00:18:26;;;;;;;1.40;0.87;;;;;;;;;;4972988;28;20181;-78
2022/09/27 00:20:53;;;;;;;0.70;0.70;;;;;;;;;;4972465;28;20203;-78
2022/09/27 00:23:19;;;;;;;0.90;0.80;;;;;;;;;;4973311;28;20176;-78
2022/09/27 00:25:58;;;;;;;1.33;0.77;;;;;;;;;;4973153;28;20189;-78
2022/09/27 00:28:24;;;;;;;0.60;0.60;;;;;;;;;;4957111;28;20220;-78
2022/09/27 00:30:50;;;;;;;0.70;0.70;;;;;;;;;;4972676;28;20313;-78
2022/09/27 00:33:16;;;;;;;0.80;0.70;;;;;;;;;;4973105;28;20174;-78
2022/09/27 00:35:43;;;;;;;0.90;0.80;;;;;;;;;;4956745;28;20209;-78
2022/09/27 00:38:09;;;;;;;0.77;0.70;;;;;;;;;;4956888;28;20186;-78
2022/09/27 00:40:35;;;;;;;0.70;0.60;;;;;;;;;;4956202;28;20217;-78
2022/09/27 00:43:01;;;;;;;0.70;0.70;;;;;;;;;;4972543;28;20554;-78
2022/09/27 00:45:27;;;;;;;1.27;0.63;;;;;;;;;;4956043;28;20563;-78
2022/09/27 00:48:00;;;;;;;0.70;0.70;;;;;;;;;;4972413;28;20273;-78
2022/09/27 00:50:35;;;;;;;0.80;0.80;;;;;;;;;;4971785;28;20240;-78
2022/09/27 00:53:09;;;;;;;0.90;0.90;;;;;;;;;;4973432;28;20186;-78
2022/09/27 00:55:48;;;;;;;0.80;0.80;;;;;;;;;;4971992;28;20189;-78
2022/09/27 00:58:16;;;;;;;0.87;0.87;;;;;;;;;;4972331;28;20678;-78
2022/09/27 01:00:43;;;;;;;0.80;0.80;;;;;;;;;;4971854;28;20205;-78
2022/09/27 01:03:12;;;;;;;1.20;1.10;;;;;;;;;;4972247;28;20187;-78
2022/09/27 01:05:39;;;;;;;0.80;0.80;;;;;;;;;;4956063;28;20205;-78
2022/09/27 01:08:05;;;;;;;0.80;0.80;;;;;;;;;;4972412;28;20214;-78
2022/09/27 01:10:39;;;;;;;1.07;1.00;;;;;;;;;;4955983;28;20286;-78
2022/09/27 01:13:11;;;;;;;1.73;1.10;;;;;;;;;;4972430;28;20275;-78
2022/09/27 01:15:40;;;;;;;1.17;1.07;;;;;;;;;;4972111;28;20180;-78
2022/09/27 01:18:15;;;;;;;1.20;1.10;;;;;;;;;;4972038;28;20650;-78
2022/09/27 01:20:48;;;;;;;1.20;1.10;;;;;;;;;;4971454;28;20201;-78
2022/09/27 01:23:17;;;;;;;1.40;1.10;;;;;;;;;;4974942;28;20186;-78
2022/09/27 01:25:51;;;;;;;1.23;1.13;;;;;;;;;;4976642;28;20203;-78
2022/09/27 01:28:20;;;;;;;1.20;1.00;;;;;;;;;;4975452;28;20218;-78
2022/09/27 01:30:49;;;;;;;1.10;1.00;;;;;;;;;;4975473;28;20214;-78
2022/09/27 01:33:38;;;;;;;1.17;1.07;;;;;;;;;;4975897;28;20325;-78
2022/09/27 01:36:07;;;;;;;1.30;1.20;;;;;;;;;;4948595;28;20190;-78
2022/09/27 01:38:59;;;;;;;1.70;1.27;;;;;;;;;;4975395;28;20559;-78
2022/09/27 01:41:43;;;;;;;1.13;1.07;;;;;;;;;;4953341;28;20194;-78
2022/09/27 01:44:17;;;;;;;1.70;1.17;;;;;;;;;;4975633;28;20183;-78
2022/09/27 01:46:45;;;;;;;1.13;1.03;;;;;;;;;;4975403;28;20196;-78
2022/09/27 01:49:15;;;;;;;1.30;1.20;;;;;;;;;;4974994;28;20199;-78
2022/09/27 01:51:44;;;;;;;1.30;1.20;;;;;;;;;;4976646;28;20322;-78
2022/09/27 01:54:13;;;;;;;1.40;1.30;;;;;;;;;;4976585;28;20178;-78
2022/09/27 01:56:43;;;;;;;1.20;1.10;;;;;;;;;;4959529;28;20183;-78
2022/09/27 01:59:19;;;;;;;1.57;1.30;;;;;;;;;;4976396;28;20681;-78
2022/09/27 02:01:48;;;;;;;1.40;1.30;;;;;;;;;;4975501;28;20195;-78
2022/09/27 02:04:16;;;;;;;1.40;1.30;;;;;;;;;;4975370;28;20642;-78
2022/09/27 02:06:44;;;;;;;2.60;1.33;;;;;;;;;;4959116;28;20210;-78
2022/09/27 02:09:16;;;;;;;1.50;1.40;;;;;;;;;;4975431;28;20288;-78
2022/09/27 02:11:45;;;;;;;2.50;1.40;;;;;;;;;;4975329;28;20187;-78
2022/09/27 02:14:15;;;;;;;1.60;1.50;;;;;;;;;;4975763;28;20224;-78
2022/09/27 02:16:52;;;;;;;2.57;1.47;;;;;;;;;;4976512;28;20174;-78
2022/09/27 02:19:41;;;;;;;3.20;1.50;;;;;;;;;;4958752;28;20208;-78
2022/09/27 02:22:16;;;;;;;1.63;1.40;;;;;;;;;;4974935;28;20184;-78
2022/09/27 02:25:02;;;;;;;1.37;1.27;;;;;;;;;;4975227;28;20175;-78
2022/09/27 02:27:33;;;;;;;2.73;1.40;;;;;;;;;;4975093;28;20287;-78
2022/09/27 02:30:03;;;;;;;1.97;1.33;;;;;;;;;;4974655;28;20215;-78
2022/09/27 02:32:29;;;;;;;1.83;1.40;;;;;;;;;;4975164;28;20552;-78
2022/09/27 02:34:56;;;;;;;2.43;1.50;;;;;;;;;;4958021;28;20187;-78
2022/09/27 02:37:23;;;;;;;2.03;1.40;;;;;;;;;;4974962;28;20615;-78
2022/09/27 02:39:49;;;;;;;1.97;1.50;;;;;;;;;;4974415;28;20214;-78
2022/09/27 02:42:15;;;;;;;2.00;1.50;;;;;;;;;;4959145;28;20554;-78
2022/09/27 02:44:41;;;;;;;1.87;1.57;;;;;;;;;;4974846;28;20191;-78
2022/09/27 02:47:26;;;;;;;1.80;1.50;;;;;;;;;;4958668;28;20248;-78
2022/09/27 02:50:15;;;;;;;2.37;1.40;;;;;;;;;;4975844;28;20195;-78
2022/09/27 02:52:53;;;;;;;1.80;1.53;;;;;;;;;;4947927;28;20215;-78
2022/09/27 02:55:28;;;;;;;1.83;1.63;;;;;;;;;;4974193;28;20179;-78
2022/09/27 02:58:00;;;;;;;2.67;1.80;;;;;;;;;;4974373;28;20225;-78
2022/09/27 03:00:39;;;;;;;2.13;1.90;;;;;;;;;;4974040;28;20239;-78
2022/09/27 03:03:14;;;;;;;2.97;1.90;;;;;;;;;;4974447;28;20560;-78
2022/09/27 03:05:45;;;;;;;2.67;1.80;;;;;;;;;;4974401;28;20238;-78
2022/09/27 03:08:11;;;;;;;2.20;2.00;;;;;;;;;;4957600;28;20222;-78
2022/09/27 03:10:37;;;;;;;2.70;2.10;;;;;;;;;;4973699;28;20312;-78
2022/09/27 03:13:04;;;;;;;2.93;2.10;;;;;;;;;;4957503;28;20180;-78
2022/09/27 03:15:30;;;;;;;2.83;2.20;;;;;;;;;;4957943;28;20179;-78
2022/09/27 03:17:56;;;;;;;3.10;1.90;;;;;;;;;;4958315;28;20238;-78
2022/09/27 03:20:23;;;;;;;3.20;2.23;;;;;;;;;;4974064;28;20196;-78
2022/09/27 03:22:49;;;;;;;4.87;2.40;;;;;;;;;;4957675;28;20552;-78
2022/09/27 03:25:15;;;;;;;2.87;2.10;;;;;;;;;;4958175;28;20226;-79
2022/09/27 03:27:41;;;;;;;5.60;2.33;;;;;;;;;;4957935;28;20246;-78
2022/09/27 03:30:07;;;;;;;3.47;1.90;;;;;;;;;;4973710;28;20266;-78
2022/09/27 03:32:33;;;;;;;3.80;2.03;;;;;;;;;;4973605;28;20291;-78
2022/09/27 03:34:59;;;;;;;2.50;2.30;;;;;;;;;;4957498;28;20234;-78
2022/09/27 03:37:28;;;;;;;3.03;2.23;;;;;;;;;;4957689;28;20598;-78
2022/09/27 03:39:54;;;;;;;3.77;2.53;;;;;;;;;;4957746;28;20207;-78
2022/09/27 03:42:20;;;;;;;3.93;2.60;;;;;;;;;;4957821;28;20197;-78
2022/09/27 03:44:46;;;;;;;3.13;2.13;;;;;;;;;;4957419;28;20188;-78
2022/09/27 03:47:12;;;;;;;3.00;2.37;;;;;;;;;;4957592;28;20215;-78
2022/09/27 03:49:38;;;;;;;3.20;2.50;;;;;;;;;;4957244;28;20211;-78
2022/09/27 03:52:04;;;;;;;4.83;2.47;;;;;;;;;;4957639;28;20258;-78
2022/09/27 03:54:30;;;;;;;3.80;2.73;;;;;;;;;;4973505;28;20180;-78
2022/09/27 03:56:56;;;;;;;4.20;2.70;;;;;;;;;;4973660;28;20341;-78
2022/09/27 03:59:22;;;;;;;3.03;2.73;;;;;;;;;;4973425;28;20301;-78
2022/09/27 04:01:48;;;;;;;3.07;2.50;;;;;;;;;;4974060;28;20184;-78
2022/09/27 04:04:14;;;;;;;2.93;2.57;;;;;;;;;;4957856;28;20194;-78
2022/09/27 04:06:40;;;;;;;2.90;2.50;;;;;;;;;;4957842;28;20218;-78
2022/09/27 04:09:06;;;;;;;2.63;2.30;;;;;;;;;;4973389;28;20270;-78
2022/09/27 04:11:32;;;;;;;4.20;2.97;;;;;;;;;;4957620;28;20211;-78
2022/09/27 04:13:58;;;;;;;4.00;2.90;;;;;;;;;;4957661;28;20184;-78
2022/09/27 04:16:24;;;;;;;3.57;2.87;;;;;;;;;;4957927;28;20223;-78
2022/09/27 04:18:50;;;;;;;4.27;2.63;;;;;;;;;;4973258;28;20575;-78
2022/09/27 04:21:16;;;;;;;4.63;2.63;;;;;;;;;;4957204;28;20202;-78
2022/09/27 04:23:42;;;;;;;3.03;2.30;;;;;;;;;;4973399;28;20195;-78
2022/09/27 04:26:08;;;;;;;3.03;2.60;;;;;;;;;;4957362;28;20180;-78
2022/09/27 04:28:34;;;;;;;4.10;2.20;;;;;;;;;;4957287;28;20579;-78
2022/09/27 04:31:00;;;;;;;5.00;2.43;;;;;;;;;;4981358;23;20222;-78
2022/09/27 04:33:26;;;;;;;3.77;2.70;;;;;;;;;;4976321;28;20176;-78
2022/09/27 04:38:37;;;;;;;3.23;1.80;;;;;;;;;;4993595;28;20183;-78
2022/09/27 04:41:03;;;;;;;2.13;1.60;;;;;;;;;;4975986;28;20286;-78
2022/09/27 04:43:29;;;;;;;1.80;1.60;;;;;;;;;;4991905;28;20171;-78
2022/09/27 04:45:55;;;;;;;2.17;1.40;;;;;;;;;;4992187;28;20181;-78
2022/09/27 04:48:22;;;;;;;2.27;1.50;;;;;;;;;;4992012;28;20223;-78
2022/09/27 04:50:55;;;;;;;2.77;1.30;;;;;;;;;;4991694;28;20223;-78
2022/09/27 04:53:21;;;;;;;3.67;1.50;;;;;;;;;;4992269;28;20216;-78
2022/09/27 04:55:48;;;;;;;2.07;1.50;;;;;;;;;;4975927;28;20184;-78
2022/09/27 04:58:14;;;;;;;1.67;1.43;;;;;;;;;;4995365;28;20653;-78
2022/09/27 05:00:44;;;;;;;2.90;1.30;;;;;;;;;;4995868;28;20238;-78
2022/09/27 05:03:10;;;;;;;1.20;1.00;;;;;;;;;;4995461;28;20206;-77
2022/09/27 05:05:36;;;;;;;1.23;1.13;;;;;;;;;;4978990;28;20223;-77
2022/09/27 05:08:02;;;;;;;3.00;1.13;;;;;;;;;;4995009;28;20210;-78
2022/09/27 05:10:28;;;;;;;1.10;1.00;;;;;;;;;;4978951;28;20297;-77
2022/09/27 05:12:54;;;;;;;1.10;1.00;;;;;;;;;;4978986;28;20187;-77
2022/09/27 05:15:20;;;;;;;2.33;1.47;;;;;;;;;;4979033;28;20237;-77
2022/09/27 05:17:46;;;;;;;1.60;1.20;;;;;;;;;;4996177;28;20247;-76
2022/09/27 05:20:12;;;;;;;1.63;1.10;;;;;;;;;;4979051;28;20218;-77
2022/09/27 05:22:39;;;;;;;1.10;1.00;;;;;;;;;;4978721;28;20193;-77
2022/09/27 05:25:05;;;;;;;1.10;1.00;;;;;;;;;;4995066;28;20176;-75
2022/09/27 05:27:31;;;;;;;1.00;0.90;;;;;;;;;;4994916;28;20271;-77
2022/09/27 05:30:00;;;;;;;1.20;1.00;;;;;;;;;;4978336;28;20226;-77
2022/09/27 05:32:26;;;;;;;1.17;1.00;;;;;;;;;;4979144;28;20187;-77
2022/09/27 05:34:53;;;;;;;0.83;0.80;;;;;;;;;;4994572;28;20182;-77
2022/09/27 05:37:19;;;;;;;1.93;0.90;;;;;;;;;;4978666;28;20641;-78
2022/09/27 05:39:45;;;;;;;2.23;0.90;;;;;;;;;;4978415;28;20221;-77
2022/09/27 05:42:14;;;;;;;1.00;0.90;;;;;;;;;;4978532;28;20190;-77
2022/09/27 05:44:40;;;;;;;1.27;1.10;;;;;;;;;;4978862;28;20221;-78
2022/09/27 05:47:06;;;;;;;2.70;1.70;;;;;;;;;;4978267;28;20200;-77
2022/09/27 05:49:32;;;;;;;1.00;0.90;;;;;;;;;;4994679;28;20198;-78
2022/09/27 05:51:59;;;;;;;2.13;1.13;;;;;;;;;;4979654;28;20210;-78
2022/09/27 05:54:25;;;;;;;1.33;1.23;;;;;;;;;;4996023;28;20182;-77
2022/09/27 05:56:57;;;;;;;1.27;1.10;;;;;;;;;;4994855;28;20254;-77
2022/09/27 05:59:24;;;;;;;3.10;1.10;;;;;;;;;;4995521;28;20199;-77
2022/09/27 06:01:50;;;;;;;1.20;1.10;;;;;;;;;;4994964;28;20196;-79
2022/09/27 06:04:16;;;;;;;1.40;1.20;;;;;;;;;;4978745;28;20208;-78
2022/09/27 06:06:43;;;;;;;1.00;0.90;;;;;;;;;;4978303;28;20625;-78
2022/09/27 06:09:12;;;;;;;1.30;1.20;;;;;;;;;;4994620;28;20179;-77
2022/09/27 06:11:38;;;;;;;1.30;1.20;;;;;;;;;;4994539;28;20710;-80
2022/09/27 06:14:05;;;;;;;2.20;1.53;;;;;;;;;;4994847;28;20179;-79
2022/09/27 06:16:31;;;;;;;1.90;1.30;;;;;;;;;;4994755;28;20185;-78
2022/09/27 06:18:57;;;;;;;1.77;1.20;;;;;;;;;;4993851;28;20233;-78
2022/09/27 06:21:23;;;;;;;1.30;1.20;;;;;;;;;;4993950;28;20182;-79
2022/09/27 06:23:49;;;;;;;1.50;1.10;;;;;;;;;;4994400;28;20176;-79
2022/09/27 06:26:16;;;;;;;1.20;1.10;;;;;;;;;;4993809;28;20182;-77
2022/09/27 06:28:42;;;;;;;1.30;1.20;;;;;;;;;;4977879;28;20222;-77
2022/09/27 06:31:10;;;;;;;0.90;0.90;;;;;;;;;;4993434;28;20221;-77
2022/09/27 06:33:36;;;;;;;1.30;1.10;;;;;;;;;;4993940;28;20241;-77
2022/09/27 06:36:03;;;;;;;1.20;1.10;;;;;;;;;;4977658;28;20175;-77
2022/09/27 06:38:29;;;;;;;1.47;1.33;;;;;;;;;;4994803;28;20186;-77
2022/09/27 06:40:57;;;;;;;0.80;0.80;;;;;;;;;;4993447;28;20203;-77
2022/09/27 06:43:23;;;;;;;1.30;1.00;;;;;;;;;;4993477;28;20187;-77
2022/09/27 06:45:49;;;;;;;1.10;1.00;;;;;;;;;;4977216;28;20186;-77
2022/09/27 06:48:16;;;;;;;1.23;1.10;;;;;;;;;;4993394;28;20767;-77
2022/09/27 06:50:43;;;;;;;1.10;1.00;;;;;;;;;;4993268;28;20207;-77
2022/09/27 06:53:10;;;;;;;1.40;0.90;;;;;;;;;;4993274;28;20183;-78
2022/09/27 06:55:36;;;;;;;1.90;1.03;;;;;;;;;;4977040;28;20180;-78
2022/09/27 07:00:52;;;;;;;1.40;1.30;;;;;;;;;;4993589;28;20221;-77
2022/09/27 07:03:18;;;;;;;1.33;1.10;;;;;;;;;;4993030;28;20172;-77
2022/09/27 07:05:54;;;;;;;1.97;1.20;;;;;;;;;;4993018;28;20182;-76
2022/09/27 07:08:20;;;;;;;1.30;1.20;;;;;;;;;;4993045;28;20206;-77
2022/09/27 07:10:46;;;;;;;1.40;1.10;;;;;;;;;;4976391;28;20253;-77
2022/09/27 07:13:12;;;;;;;1.30;1.20;;;;;;;;;;4976991;28;20274;-77
2022/09/27 07:15:40;;;;;;;3.40;1.30;;;;;;;;;;4976761;28;20326;-77
2022/09/27 07:18:06;;;;;;;1.50;1.40;;;;;;;;;;4992888;28;20720;-78
2022/09/27 07:20:35;;;;;;;1.70;1.50;;;;;;;;;;4975831;28;20210;-76
2022/09/27 07:23:02;;;;;;;1.60;1.50;;;;;;;;;;4992669;28;20187;-77
2022/09/27 07:25:28;;;;;;;1.80;1.47;;;;;;;;;;4992583;28;20180;-78
2022/09/27 07:27:54;;;;;;;2.37;1.80;;;;;;;;;;4976533;28;20308;-77
2022/09/27 07:30:20;;;;;;;1.60;1.50;;;;;;;;;;4976255;28;20272;-78
2022/09/27 07:32:47;;;;;;;2.43;1.60;;;;;;;;;;4992622;28;20266;-77
2022/09/27 07:35:14;;;;;;;1.83;1.63;;;;;;;;;;4976468;28;20187;-77
2022/09/27 07:37:41;;;;;;;1.70;1.60;;;;;;;;;;4976759;28;20280;-78
2022/09/27 07:40:08;;;;;;;1.97;1.70;;;;;;;;;;4992427;28;20203;-78
2022/09/27 07:42:36;;;;;;;1.87;1.60;;;;;;;;;;4976583;28;20250;-79
2022/09/27 07:45:02;;;;;;;2.93;1.60;;;;;;;;;;4991738;28;20210;-78
2022/09/27 07:47:29;;;;;;;2.03;1.83;;;;;;;;;;4975129;28;20194;-79
2022/09/27 07:49:55;;;;;;;2.50;1.90;;;;;;;;;;4975974;28;20286;-78
2022/09/27 07:52:22;;;;;;;4.40;1.90;;;;;;;;;;4992530;28;20261;-79
2022/09/27 07:54:48;;;;;;;2.63;1.83;;;;;;;;;;4992591;28;20222;-79
2022/09/27 07:57:15;;;;;;;2.97;1.93;;;;;;;;;;4992614;28;20185;-79
2022/09/27 07:59:41;;;;;;;2.20;1.90;;;;;;;;;;4976279;28;20246;-79
2022/09/27 08:02:13;;;;;;;1.50;1.40;;;;;;;;;;4976246;28;20187;-79
2022/09/27 08:04:40;;;;;;;2.10;1.80;;;;;;;;;;4992310;28;20187;-79
2022/09/27 08:07:06;;;;;;;2.70;1.90;;;;;;;;;;4976226;28;20199;-79
2022/09/27 08:09:32;;;;;;;3.23;2.80;;;;;;;;;;4993458;28;20199;-78
2022/09/27 08:11:58;;;;;;;4.73;3.50;;;;;;;;;;4976488;28;20211;-79
2022/09/27 08:14:24;;;;;;;8.87;5.27;;;;;;;;;;4976523;28;20213;-78
2022/09/27 08:16:50;;;;;;;3.40;2.00;;;;;;;;;;4975660;28;20191;-78
2022/09/27 08:19:17;;;;;;;10.83;4.40;;;;;;;;;;4976618;28;20214;-79
2022/09/27 08:21:43;;;;;;;18.77;8.00;;;;;;;;;;4976623;28;20234;-79
2022/09/27 08:24:09;;;;;;;15.60;6.90;;;;;;;;;;4992400;28;20187;-79
2022/09/27 08:26:35;;;;;;;3.00;1.70;;;;;;;;;;4976748;28;20194;-79
2022/09/27 08:29:02;;;;;;;7.20;3.43;;;;;;;;;;4992463;28;20238;-78
2022/09/27 08:31:28;;;;;;;4.30;2.53;;;;;;;;;;4992214;28;20186;-79
2022/09/27 08:33:55;;;;;;;3.27;2.03;;;;;;;;;;4975599;28;20282;-79
2022/09/27 08:36:22;;;;;;;2.40;1.67;;;;;;;;;;4976859;28;20179;-79
2022/09/27 08:38:49;;;;;;;22.57;9.97;;;;;;;;;;4992685;28;20191;-78
2022/09/27 08:41:21;;;;;;;4.20;2.80;;;;;;;;;;4992226;28;20207;-78
2022/09/27 08:43:47;;;;;;;3.13;2.40;;;;;;;;;;4992403;28;20180;-79
2022/09/27 08:46:13;;;;;;;11.40;5.70;;;;;;;;;;4992417;28;20175;-79
2022/09/27 08:48:39;;;;;;;5.00;3.37;;;;;;;;;;4992360;28;20200;-79
2022/09/27 08:51:07;;;;;;;18.67;10.30;;;;;;;;;;4960680;28;20208;-79
2022/09/27 08:56:26;;;;;;;2.40;2.00;;;;;;;;;;4974380;28;20160;-79
2022/09/27 08:58:58;;;;;;;2.20;1.97;;;;;;;;;;4956794;28;20182;-79
2022/09/27 09:01:25;;;;;;;2.10;1.77;;;;;;;;;;4972907;28;20180;-79
2022/09/27 09:03:56;;;;;;;3.50;2.50;;;;;;;;;;4974034;28;20168;-79
2022/09/27 09:06:34;;;;;;;5.20;3.57;;;;;;;;;;4974090;28;20612;-79
2022/09/27 09:09:19;;;;;;;3.60;2.13;;;;;;;;;;4979638;28;20187;-79
2022/09/27 09:14:54;;;;;;;2.87;2.20;;;;;;;;;;4993347;28;20234;-79
2022/09/27 09:17:26;;;;;;;1.90;1.50;;;;;;;;;;4992219;28;20224;-79
2022/09/27 09:20:13;;;;;;;2.17;1.70;;;;;;;;;;4992244;28;20705;-79
2022/09/27 09:22:57;;;;;;;1.63;1.53;;;;;;;;;;4993120;28;20184;-79
2022/09/27 09:25:24;;;;;;;1.93;1.60;;;;;;;;;;4991063;28;20217;-79
2022/09/27 09:27:49;;;;;;;1.80;1.50;;;;;;;;;;4992040;28;20590;-79
2022/09/27 09:30:45;;;;;;;2.20;1.50;;;;;;;;;;4991827;28;20702;-79
2022/09/27 09:33:15;;;;;;;2.83;2.30;;;;;;;;;;4979215;28;20242;-79
2022/09/27 09:35:54;;;;;;;2.97;1.50;;;;;;;;;;4991759;28;20249;-79
2022/09/27 09:38:27;;;;;;;2.20;1.60;;;;;;;;;;4991792;28;20187;-78
2022/09/27 09:41:02;;;;;;;2.00;1.80;;;;;;;;;;4991887;28;20199;-78
2022/09/27 09:43:44;;;;;;;2.27;1.50;;;;;;;;;;4993582;28;20190;-78
2022/09/27 09:46:19;;;;;;;1.50;1.40;;;;;;;;;;4995666;28;20176;-78
2022/09/27 09:48:57;;;;;;;3.23;1.77;;;;;;;;;;4996047;28;20234;-79
2022/09/27 09:51:29;;;;;;;3.60;1.70;;;;;;;;;;4996484;28;20550;-79
2022/09/27 09:54:02;;;;;;;2.37;1.70;;;;;;;;;;4979786;28;20551;-80
2022/09/27 09:56:33;;;;;;;1.70;1.60;;;;;;;;;;4994955;28;20180;-78
2022/09/27 09:59:03;;;;;;;2.17;1.50;;;;;;;;;;4995851;28;20250;-77
2022/09/27 10:01:40;;;;;;;1.90;1.70;;;;;;;;;;4979185;28;20186;-81
2022/09/27 10:04:06;;;;;;;2.47;1.50;;;;;;;;;;4995079;28;20262;-81
2022/09/27 10:06:32;;;;;;;2.20;1.70;;;;;;;;;;4995402;28;20247;-79
2022/09/27 10:08:59;;;;;;;1.77;1.50;;;;;;;;;;4995130;28;20526;-78
2022/09/27 10:11:27;;;;;;;1.70;1.60;;;;;;;;;;4978460;28;20187;-79
2022/09/27 10:13:57;;;;;;;1.50;1.40;;;;;;;;;;4994432;28;20172;-79
2022/09/27 10:16:24;;;;;;;2.17;1.50;;;;;;;;;;4995699;28;20179;-78
2022/09/27 10:18:51;;;;;;;3.40;1.50;;;;;;;;;;4994585;28;20650;-78
2022/09/27 10:21:18;;;;;;;2.47;2.10;;;;;;;;;;4996032;28;20281;-77
2022/09/27 10:24:05;;;;;;;3.30;1.97;;;;;;;;;;4995059;28;20180;-77
2022/09/27 10:26:32;;;;;;;3.63;2.20;;;;;;;;;;4995077;28;20183;-77
2022/09/27 10:31:40;;;;;;;2.60;1.87;;;;;;;;;;5027674;23;20243;-78
2022/09/27 10:34:17;;;;;;;2.90;2.40;;;;;;;;;;4979159;28;20180;-79
2022/09/27 10:36:43;;;;;;;13.47;8.13;;;;;;;;;;4994694;28;20171;-79
2022/09/27 10:39:20;;;;;;;4.73;2.43;;;;;;;;;;4980008;28;20179;-79
2022/09/27 10:41:46;;;;;;;3.83;2.47;;;;;;;;;;4977165;28;20263;-78
2022/09/27 10:44:15;;;;;;;3.03;2.20;;;;;;;;;;4976933;28;20204;-79
2022/09/27 10:46:45;;;;;;;4.30;2.37;;;;;;;;;;4976709;28;20221;-79
2022/09/27 10:49:19;;;;;;;2.43;2.23;;;;;;;;;;4973991;28;20176;-78
2022/09/27 10:51:46;;;;;;;2.73;2.27;;;;;;;;;;4973959;28;20235;-78
2022/09/27 10:54:22;;;;;;;4.90;1.90;;;;;;;;;;4973272;28;20179;-78
2022/09/27 10:56:59;;;;;;;3.33;1.80;;;;;;;;;;4974175;28;20202;-78
2022/09/27 10:59:29;;;;;;;2.37;1.67;;;;;;;;;;4973756;28;20180;-78
2022/09/27 11:01:55;;;;;;;3.07;1.80;;;;;;;;;;4973641;28;20183;-78
2022/09/27 11:04:24;;;;;;;2.77;2.50;;;;;;;;;;4973687;28;20180;-78
2022/09/27 11:06:50;;;;;;;3.10;2.60;;;;;;;;;;4973653;28;20291;-78
2022/09/27 11:09:18;;;;;;;5.23;3.50;;;;;;;;;;4974886;28;20176;-78
2022/09/27 11:11:45;;;;;;;9.70;5.87;;;;;;;;;;4974782;28;20188;-78
2022/09/27 11:14:23;;;;;;;9.47;4.57;;;;;;;;;;4973530;28;20252;-78
2022/09/27 11:17:16;;;;;;;2.90;1.77;;;;;;;;;;4973660;28;20179;-78
2022/09/27 11:20:01;;;;;;;10.63;5.70;;;;;;;;;;4973937;28;20690;-77
2022/09/27 11:22:46;;;;;;;9.87;5.57;;;;;;;;;;4970602;28;20181;-78
2022/09/27 11:25:12;;;;;;;2.57;1.80;;;;;;;;;;4975791;28;20172;-78
2022/09/27 11:27:41;;;;;;;12.47;7.33;;;;;;;;;;4972073;28;20213;-78
2022/09/27 11:30:09;;;;;;;6.73;4.17;;;;;;;;;;4973225;28;20259;-78
2022/09/27 11:32:54;;;;;;;6.40;3.57;;;;;;;;;;4957649;28;20746;-78
2022/09/27 11:35:20;;;;;;;5.33;3.67;;;;;;;;;;4968680;28;20274;-77
2022/09/27 11:37:59;;;;;;;7.73;5.03;;;;;;;;;;4963318;28;20644;-78
2022/09/27 11:40:28;;;;;;;5.90;3.60;;;;;;;;;;4953932;28;20205;-78
2022/09/27 11:43:06;;;;;;;3.30;2.43;;;;;;;;;;4955500;28;20203;-78
2022/09/27 11:45:36;;;;;;;3.77;2.20;;;;;;;;;;4955222;28;20264;-78
2022/09/27 11:51:36;;;;;;;2.27;1.70;;;;;;;;;;4954926;29;20231;-78
2022/09/27 11:54:29;;;;;;;3.10;1.47;;;;;;;;;;4965723;28;20235;-78
2022/09/27 11:57:00;;;;;;;3.13;1.60;;;;;;;;;;4974154;28;20581;-78
2022/09/27 11:59:39;;;;;;;2.43;1.00;;;;;;;;;;4973675;28;20254;-78
2022/09/27 12:02:07;;;;;;;2.87;1.63;;;;;;;;;;4973842;28;20674;-78
2022/09/27 12:04:43;;;;;;;2.67;1.67;;;;;;;;;;4973917;28;20182;-79
2022/09/27 12:07:33;;;;;;;1.47;1.37;;;;;;;;;;4972853;28;20552;-78
2022/09/27 12:10:03;;;;;;;2.33;1.80;;;;;;;;;;4973842;28;20250;-78
2022/09/27 12:12:31;;;;;;;2.00;1.20;;;;;;;;;;4974063;28;20183;-79
2022/09/27 12:15:02;;;;;;;2.57;1.20;;;;;;;;;;4974616;28;20184;-79
2022/09/27 12:17:34;;;;;;;2.23;1.20;;;;;;;;;;4973791;28;20188;-79
2022/09/27 12:20:06;;;;;;;1.40;0.90;;;;;;;;;;4973519;28;20291;-78
2022/09/27 12:22:52;;;;;;;1.00;0.90;;;;;;;;;;4973782;28;20179;-78
2022/09/27 12:25:18;;;;;;;3.10;1.10;;;;;;;;;;4969974;28;20192;-78
2022/09/27 12:27:53;;;;;;;1.90;1.00;;;;;;;;;;4974030;28;20668;-79
2022/09/27 12:30:19;;;;;;;2.13;0.83;;;;;;;;;;4973320;28;20307;-78
2022/09/27 12:33:06;;;;;;;1.63;0.93;;;;;;;;;;4973496;28;20216;-78
2022/09/27 12:35:36;;;;;;;1.73;0.90;;;;;;;;;;4973543;28;20337;-78
2022/09/27 12:38:05;;;;;;;2.30;0.90;;;;;;;;;;4973837;28;20208;-78
2022/09/27 12:40:35;;;;;;;2.67;1.53;;;;;;;;;;4973444;28;20207;-78
2022/09/27 12:43:12;;;;;;;1.87;1.20;;;;;;;;;;4974563;28;20181;-78
2022/09/27 12:45:38;;;;;;;1.57;1.10;;;;;;;;;;4974680;28;20173;-78
2022/09/27 12:48:06;;;;;;;2.70;0.97;;;;;;;;;;4973079;28;20200;-78
2022/09/27 12:50:36;;;;;;;2.23;1.00;;;;;;;;;;4973018;28;20192;-78
2022/09/27 12:53:22;;;;;;;3.33;2.23;;;;;;;;;;4973213;28;20197;-79
2022/09/27 12:56:09;;;;;;;1.57;0.80;;;;;;;;;;4973640;28;20180;-79
2022/09/27 12:58:41;;;;;;;0.73;0.73;;;;;;;;;;4973182;28;20315;-78
2022/09/27 13:01:18;;;;;;;1.30;0.60;;;;;;;;;;4973646;28;20291;-79
2022/09/27 13:03:44;;;;;;;1.27;0.60;;;;;;;;;;4973312;28;20184;-78
2022/09/27 13:06:31;;;;;;;0.70;0.60;;;;;;;;;;4973398;28;20185;-78
2022/09/27 13:09:15;;;;;;;1.37;0.90;;;;;;;;;;4962948;28;20231;-78
2022/09/27 13:11:44;;;;;;;0.60;0.60;;;;;;;;;;4974415;28;20173;-78
2022/09/27 13:14:16;;;;;;;0.93;0.50;;;;;;;;;;4973146;28;20182;-78
2022/09/27 13:16:43;;;;;;;0.93;0.67;;;;;;;;;;4973421;28;20172;-78
2022/09/27 13:19:29;;;;;;;1.70;0.77;;;;;;;;;;4975624;28;20239;-78
2022/09/27 13:21:56;;;;;;;1.27;0.80;;;;;;;;;;4976839;28;20184;-78
2022/09/27 13:24:29;;;;;;;2.07;0.90;;;;;;;;;;4976671;28;20185;-78
2022/09/27 13:26:59;;;;;;;0.97;0.70;;;;;;;;;;4975002;28;20187;-78
2022/09/27 13:29:27;;;;;;;1.90;1.00;;;;;;;;;;4995918;28;20203;-78
2022/09/27 13:31:53;;;;;;;1.10;0.60;;;;;;;;;;4996115;28;20183;-78
2022/09/27 13:34:38;;;;;;;1.57;0.90;;;;;;;;;;4997269;28;20545;-78
2022/09/27 13:37:23;;;;;;;0.90;0.70;;;;;;;;;;4996008;28;20522;-78
2022/09/27 13:39:49;;;;;;;1.17;0.70;;;;;;;;;;4995781;28;20211;-78
2022/09/27 13:42:21;;;;;;;0.77;0.70;;;;;;;;;;4979915;28;20191;-78
2022/09/27 13:44:52;;;;;;;1.67;0.80;;;;;;;;;;4996048;28;20203;-78
2022/09/27 13:47:31;;;;;;;0.90;0.70;;;;;;;;;;4995704;28;20342;-78
2022/09/27 13:50:03;;;;;;;1.50;0.83;;;;;;;;;;4995498;28;20200;-78
2022/09/27 13:52:34;;;;;;;1.00;0.80;;;;;;;;;;4995442;28;20167;-78
2022/09/27 13:55:07;;;;;;;1.10;0.93;;;;;;;;;;4995530;28;20176;-78
2022/09/27 13:57:42;;;;;;;1.60;0.90;;;;;;;;;;4995745;28;20176;-78
2022/09/27 14:00:11;;;;;;;4.30;0.77;;;;;;;;;;4995348;28;20206;-78
2022/09/27 14:02:52;;;;;;;0.60;0.60;;;;;;;;;;4995115;28;20668;-78
2022/09/27 14:05:21;;;;;;;0.63;0.63;;;;;;;;;;4996656;28;20203;-78
2022/09/27 14:07:48;;;;;;;1.60;0.73;;;;;;;;;;4995181;28;20200;-78
2022/09/27 14:10:17;;;;;;;2.07;0.77;;;;;;;;;;4979086;28;20207;-78
2022/09/27 14:12:44;;;;;;;0.80;0.80;;;;;;;;;;4995415;28;20282;-78
2022/09/27 14:15:18;;;;;;;0.93;0.80;;;;;;;;;;4979505;28;20190;-78
2022/09/27 14:17:44;;;;;;;1.20;1.00;;;;;;;;;;4995390;28;20164;-78
2022/09/27 14:20:31;;;;;;;1.10;1.00;;;;;;;;;;4978979;28;20581;-78
2022/09/27 14:22:58;;;;;;;2.90;0.90;;;;;;;;;;5001318;28;20187;-78
2022/09/27 14:25:24;;;;;;;1.73;1.20;;;;;;;;;;4995368;28;20176;-78
2022/09/27 14:27:50;;;;;;;1.57;1.17;;;;;;;;;;4995368;28;20218;-79
2022/09/27 14:30:18;;;;;;;2.07;1.20;;;;;;;;;;4993627;28;20211;-78
2022/09/27 14:32:48;;;;;;;1.10;1.00;;;;;;;;;;4979412;28;20180;-78
2022/09/27 14:38:02;;;;;;;1.30;1.10;;;;;;;;;;4996254;28;20222;-79
2022/09/27 14:40:28;;;;;;;1.13;1.00;;;;;;;;;;4978965;28;20303;-79
2022/09/27 14:42:55;;;;;;;2.30;1.00;;;;;;;;;;4994545;28;20180;-79
2022/09/27 14:45:36;;;;;;;1.27;1.00;;;;;;;;;;4978624;28;20195;-79
2022/09/27 14:48:34;;;;;;;1.77;1.20;;;;;;;;;;4994599;28;20187;-79
2022/09/27 14:51:09;;;;;;;1.10;1.00;;;;;;;;;;4994410;28;20215;-78
2022/09/27 14:53:43;;;;;;;0.87;0.87;;;;;;;;;;4994722;28;20205;-79
2022/09/27 14:56:17;;;;;;;1.57;1.00;;;;;;;;;;4994425;28;20187;-78
2022/09/27 14:58:46;;;;;;;1.57;1.37;;;;;;;;;;4994050;28;20255;-78
2022/09/27 15:01:15;;;;;;;1.30;1.00;;;;;;;;;;4978772;28;20214;-79
2022/09/27 15:03:43;;;;;;;1.00;0.83;;;;;;;;;;4993847;28;20214;-79
2022/09/27 15:06:09;;;;;;;1.43;0.90;;;;;;;;;;4993615;28;20291;-79
2022/09/27 15:08:35;;;;;;;1.23;1.00;;;;;;;;;;4977433;28;20211;-79
2022/09/27 15:11:06;;;;;;;1.83;1.10;;;;;;;;;;4977468;28;20290;-79
2022/09/27 15:13:32;;;;;;;5.37;3.03;;;;;;;;;;4993978;28;20164;-79
2022/09/27 15:15:59;;;;;;;6.63;3.30;;;;;;;;;;4993609;28;20187;-79
2022/09/27 15:18:28;;;;;;;1.10;1.00;;;;;;;;;;4977801;28;20592;-79
2022/09/27 15:20:54;;;;;;;1.40;1.10;;;;;;;;;;4993482;28;20290;-79